PWSweather.com
Personal Weather Stations
Station Observations

SkegnessGB

Lat: 53.147585, Lon: 0.345774

Elevation: 18

Station Type: Fine Offset WH3080

http://www.skegnessweather.info/

Latest ConditionsUpdated 7:50:00 AM GMT Thursday, Jul 18, 2019
Currently Today's Max Today's Min Today's Average
Temperature 61.3°F16.3°C 62.2°F16.8°C 58.8°F14.9°C 61.0°F16.1°C
Dew Point 58.1°F14.5°C 59.4°F15.2°C 55.6°F13.1°C 57.3°F14.1°C
Winds 5.3 mph S8.5 kmh S 8.6 mph -13.8 kmh - - 5.8 mph 9.3 kmh
Wind Gusts 8.4 mph13.5 kmh 10.1 mph16.3 kmh - -
Humidity 89% 96% 80% 88%
Pressure 29.77 in1008.1 mb 29.84 in1010.5 mb 29.76 in1007.8 mb -
Precipitation - 0.05 in1.3 mm - -
Hour Temp Dew Point Humidity Winds Wind Gusts Pressure Precip Precip Rate Daily Precip Total
07:50 AM 61.3°F16.3°C 58.1°F14.5°C 89% 5.3 mph S8.5 kmh S 8.4 mph13.5 kmh 29.77 in1008.1 mb 0.00 in0.0 mm 0.00 in0.0 mm 0.05 in1.3 mm
07:40 AM 61.3°F16.3°C 58.4°F14.7°C 90% 4.9 mph SSW7.9 kmh SSW 6.6 mph10.6 kmh 29.77 in1008.1 mb 0.00 in0.0 mm 0.00 in0.0 mm 0.05 in1.3 mm
07:30 AM 61.3°F16.3°C 58.7°F14.8°C 91% 4.5 mph SE7.2 kmh SE 4.9 mph7.9 kmh 29.77 in1008.1 mb 0.00 in0.0 mm 0.00 in0.0 mm 0.05 in1.3 mm
07:20 AM 61.3°F16.3°C 59.0°F15.0°C 92% 5.3 mph SW8.5 kmh SW 6.6 mph10.6 kmh 29.77 in1008.1 mb 0.00 in0.0 mm 0.00 in0.0 mm 0.05 in1.3 mm
07:10 AM 61.0°F16.1°C 58.9°F14.9°C 93% 6.1 mph SSW9.8 kmh SSW 7.6 mph12.2 kmh 29.77 in1008.1 mb 0.00 in0.0 mm 0.00 in0.0 mm 0.05 in1.3 mm
07:00 AM 60.8°F16.0°C 59.1°F15.1°C 94% 5.9 mph SSW9.5 kmh SSW 6.6 mph10.6 kmh 29.77 in1008.1 mb 0.00 in0.0 mm 0.00 in0.0 mm 0.05 in1.3 mm
06:50 AM 60.8°F16.0°C 59.4°F15.2°C 95% 4.8 mph WSW7.7 kmh WSW 5.9 mph9.5 kmh 29.77 in1008.1 mb 0.00 in0.0 mm 0.00 in0.0 mm 0.05 in1.3 mm
06:40 AM 60.4°F15.8°C 59.3°F15.2°C 96% 5.9 mph SE9.5 kmh SE 7.6 mph12.2 kmh 29.77 in1008.1 mb 0.00 in0.0 mm 0.00 in0.0 mm 0.05 in1.3 mm
06:30 AM 60.3°F15.7°C 59.1°F15.1°C 96% 7.5 mph SSW12.1 kmh SSW 7.6 mph12.2 kmh 29.77 in1008.1 mb 0.00 in0.0 mm 0.00 in0.0 mm 0.05 in1.3 mm
06:20 AM 60.1°F15.6°C 58.9°F14.9°C 96% 6.4 mph S10.3 kmh S 7.6 mph12.2 kmh 29.77 in1008.1 mb 0.00 in0.0 mm 0.00 in0.0 mm 0.05 in1.3 mm
06:10 AM 59.9°F15.5°C 58.8°F14.9°C 96% 4.5 mph W7.2 kmh W 5.9 mph9.5 kmh 29.77 in1008.1 mb 0.00 in0.0 mm 0.00 in0.0 mm 0.05 in1.3 mm
06:00 AM 59.7°F15.4°C 58.6°F14.8°C 96% 6.2 mph SSE10.0 kmh SSE 5.9 mph9.5 kmh 29.76 in1007.8 mb 0.00 in0.0 mm 0.00 in0.0 mm 0.05 in1.3 mm
05:50 AM 59.5°F15.3°C 58.1°F14.5°C 95% 6.1 mph S9.8 kmh S 7.6 mph12.2 kmh 29.77 in1008.1 mb 0.01 in0.3 mm 0.00 in0.0 mm 0.05 in1.3 mm
05:40 AM 59.4°F15.2°C 57.6°F14.2°C 94% 7.7 mph S12.4 kmh S 7.6 mph12.2 kmh 29.76 in1007.8 mb 0.02 in0.5 mm 0.00 in0.0 mm 0.05 in1.3 mm
05:30 AM 59.2°F15.1°C 57.5°F14.2°C 94% 7.1 mph S11.4 kmh S 7.6 mph12.2 kmh 29.76 in1007.8 mb 0.04 in1.0 mm 0.00 in0.0 mm 0.05 in1.3 mm
05:20 AM 58.8°F14.9°C 56.8°F13.8°C 93% 6.1 mph S9.8 kmh S 6.6 mph10.6 kmh 29.76 in1007.8 mb 0.05 in1.3 mm 0.00 in0.0 mm 0.05 in1.3 mm
05:10 AM 59.0°F15.0°C 56.7°F13.7°C 92% 7.1 mph S11.4 kmh S 9.1 mph14.6 kmh 29.76 in1007.8 mb 0.05 in1.3 mm 0.00 in0.0 mm 0.05 in1.3 mm
05:00 AM 59.0°F15.0°C 56.1°F13.4°C 90% 5.8 mph SW9.3 kmh SW 7.6 mph12.2 kmh 29.76 in1007.8 mb 0.05 in1.3 mm 0.01 in0.3 mm 0.05 in1.3 mm
04:50 AM 59.2°F15.1°C 55.9°F13.3°C 89% 5.1 mph S8.2 kmh S 7.6 mph12.2 kmh 29.76 in1007.8 mb 0.04 in1.0 mm 0.12 in3.0 mm 0.04 in1.0 mm
04:40 AM 59.7°F15.4°C 55.8°F13.2°C 87% 5.3 mph S8.5 kmh S 6.6 mph10.6 kmh 29.77 in1008.1 mb 0.02 in0.5 mm 0.06 in1.5 mm 0.02 in0.5 mm
04:30 AM 60.1°F15.6°C 55.6°F13.1°C 85% 6.9 mph S11.1 kmh S 7.6 mph12.2 kmh 29.77 in1008.1 mb 0.01 in0.3 mm 0.06 in1.5 mm 0.01 in0.3 mm
04:20 AM 60.8°F16.0°C 55.9°F13.3°C 84% 6.2 mph SSE10.0 kmh SSE 8.4 mph13.5 kmh 29.78 in1008.5 mb 0.00 in0.0 mm 0.00 in0.0 mm 0.00 in0.0 mm
04:10 AM 61.0°F16.1°C 56.1°F13.4°C 84% 5.6 mph W9.0 kmh W 5.9 mph9.5 kmh 29.77 in1008.1 mb 0.00 in0.0 mm 0.00 in0.0 mm 0.00 in0.0 mm
04:00 AM 61.2°F16.2°C 56.3°F13.5°C 84% 5.7 mph SSW9.2 kmh SSW 5.9 mph9.5 kmh 29.77 in1008.1 mb 0.00 in0.0 mm 0.00 in0.0 mm 0.00 in0.0 mm
03:50 AM 61.3°F16.3°C 56.8°F13.8°C 85% 6.4 mph S10.3 kmh S 6.6 mph10.6 kmh 29.78 in1008.5 mb 0.00 in0.0 mm 0.00 in0.0 mm 0.00 in0.0 mm
03:40 AM 61.3°F16.3°C 56.8°F13.8°C 85% 8.5 mph S13.7 kmh S 10.1 mph16.3 kmh 29.78 in1008.5 mb 0.00 in0.0 mm 0.00 in0.0 mm 0.00 in0.0 mm
03:30 AM 61.3°F16.3°C 56.8°F13.8°C 85% 7.0 mph SE11.3 kmh SE 10.1 mph16.3 kmh 29.78 in1008.5 mb 0.00 in0.0 mm 0.00 in0.0 mm 0.00 in0.0 mm
03:20 AM 61.5°F16.4°C 56.6°F13.7°C 84% 7.0 mph SSW11.3 kmh SSW 8.4 mph13.5 kmh 29.78 in1008.5 mb 0.00 in0.0 mm 0.00 in0.0 mm 0.00 in0.0 mm
03:10 AM 61.7°F16.5°C 56.8°F13.8°C 84% 8.6 mph S13.8 kmh S 9.1 mph14.6 kmh 29.77 in1008.1 mb 0.00 in0.0 mm 0.00 in0.0 mm 0.00 in0.0 mm
03:00 AM 62.1°F16.7°C 57.2°F14.0°C 84% 7.4 mph S11.9 kmh S 8.4 mph13.5 kmh 29.78 in1008.5 mb 0.00 in0.0 mm 0.00 in0.0 mm 0.00 in0.0 mm
02:50 AM 62.2°F16.8°C 57.3°F14.1°C 84% 7.4 mph S11.9 kmh S 8.4 mph13.5 kmh 29.79 in1008.8 mb 0.00 in0.0 mm 0.00 in0.0 mm 0.00 in0.0 mm
02:40 AM 62.2°F16.8°C 57.3°F14.1°C 84% 6.4 mph SSE10.3 kmh SSE 6.6 mph10.6 kmh 29.79 in1008.8 mb 0.00 in0.0 mm 0.00 in0.0 mm 0.00 in0.0 mm
02:30 AM 62.2°F16.8°C 57.7°F14.3°C 85% 6.3 mph SSE10.1 kmh SSE 5.9 mph9.5 kmh 29.79 in1008.8 mb 0.00 in0.0 mm 0.00 in0.0 mm 0.00 in0.0 mm
02:20 AM 62.2°F16.8°C 57.7°F14.3°C 85% 6.1 mph S9.8 kmh S 6.6 mph10.6 kmh 29.79 in1008.8 mb 0.00 in0.0 mm 0.00 in0.0 mm 0.00 in0.0 mm
02:10 AM 62.2°F16.8°C 58.0°F14.4°C 86% 6.9 mph SSE11.1 kmh SSE 6.6 mph10.6 kmh 29.80 in1009.1 mb 0.00 in0.0 mm 0.00 in0.0 mm 0.00 in0.0 mm
02:00 AM 62.1°F16.7°C 58.1°F14.5°C 87% 7.2 mph SSE11.6 kmh SSE 7.6 mph12.2 kmh 29.80 in1009.1 mb 0.00 in0.0 mm 0.00 in0.0 mm 0.00 in0.0 mm
01:50 AM 62.1°F16.7°C 58.1°F14.5°C 87% 6.8 mph S10.9 kmh S 7.6 mph12.2 kmh 29.80 in1009.1 mb 0.00 in0.0 mm 0.00 in0.0 mm 0.00 in0.0 mm
01:40 AM 61.9°F16.6°C 57.6°F14.2°C 86% 6.7 mph S10.8 kmh S 5.9 mph9.5 kmh 29.80 in1009.1 mb 0.00 in0.0 mm 0.00 in0.0 mm 0.00 in0.0 mm
01:30 AM 61.9°F16.6°C 57.3°F14.1°C 85% 5.3 mph S8.5 kmh S 5.9 mph9.5 kmh 29.80 in1009.1 mb 0.00 in0.0 mm 0.00 in0.0 mm 0.00 in0.0 mm
01:20 AM 61.7°F16.5°C 57.1°F13.9°C 85% 6.3 mph SSE10.1 kmh SSE 7.6 mph12.2 kmh 29.81 in1009.5 mb 0.00 in0.0 mm 0.00 in0.0 mm 0.00 in0.0 mm
01:10 AM 61.7°F16.5°C 57.1°F13.9°C 85% 6.3 mph SSE10.1 kmh SSE 6.6 mph10.6 kmh 29.81 in1009.5 mb 0.00 in0.0 mm 0.00 in0.0 mm 0.00 in0.0 mm
01:00 AM 61.5°F16.4°C 56.6°F13.7°C 84% 4.3 mph SSE6.9 kmh SSE 4.2 mph6.8 kmh 29.82 in1009.8 mb 0.00 in0.0 mm 0.00 in0.0 mm 0.00 in0.0 mm
12:50 AM 61.5°F16.4°C 56.3°F13.5°C 83% 4.6 mph SSE7.4 kmh SSE 4.9 mph7.9 kmh 29.82 in1009.8 mb 0.00 in0.0 mm 0.00 in0.0 mm 0.00 in0.0 mm
12:40 AM 61.5°F16.4°C 56.3°F13.5°C 83% 5.2 mph S8.4 kmh S 4.9 mph7.9 kmh 29.82 in1009.8 mb 0.00 in0.0 mm 0.00 in0.0 mm 0.00 in0.0 mm
12:30 AM 61.7°F16.5°C 56.1°F13.4°C 82% 3.5 mph SSE5.6 kmh SSE 3.4 mph5.5 kmh 29.82 in1009.8 mb 0.00 in0.0 mm 0.00 in0.0 mm 0.00 in0.0 mm
12:20 AM 61.9°F16.6°C 56.0°F13.3°C 81% 2.6 mph SE4.2 kmh SE 3.4 mph5.5 kmh 29.83 in1010.2 mb 0.00 in0.0 mm 0.00 in0.0 mm 0.00 in0.0 mm
12:10 AM 61.9°F16.6°C 56.0°F13.3°C 81% 0.2 mph SSW0.3 kmh SSW 1.7 mph2.7 kmh 29.83 in1010.2 mb 0.00 in0.0 mm 0.00 in0.0 mm 0.00 in0.0 mm
12:00 AM 61.9°F16.6°C 55.6°F13.1°C 80% 1.0 mph S1.6 kmh S 1.7 mph2.7 kmh 29.84 in1010.5 mb 0.00 in0.0 mm 0.00 in0.0 mm 0.00 in0.0 mm